Williams, AZ

1:33 AM MST on July 31, 2016 (GMT -0700)
Williams, AZ | | Change Station

Elev 7100 ft 35.23 °N, 112.17 °W | Updated 42 seconds ago

Mostly Cloudy
Mostly Cloudy
61.9 °F
Feels Like 61.9 °F
N
1.1
Wind Variable Wind from SSE
Gusts 3.0 mph

Today
High -- | Low -- °F
--% Chance of Precip.
Yesterday
High -- | Low -- °F
Precip. -- in
Pressure 30.34 in
Visibility 10.0 miles
Clouds Mostly Cloudy 11000 ft
Dew Point 52 °F
Humidity 69%
Rainfall 0.00 in
Snow Depth Not available.
5:37 AM 7:32 PM
Waning Crescent, 8% visible
METAR KCMR 310815Z AUTO 30003KT 10SM BKN110 17/11 A3034 RMK AO2
Pressure 30.34 in
Visibility 10.0 miles
Clouds Mostly Cloudy 11000 ft
Dew Point 52 °F
Humidity 69%
Rainfall 0.00 in
Snow Depth Not available.
5:37 AM 7:32 PM
Waning Crescent, 8% visible
METAR KCMR 310815Z AUTO 30003KT 10SM BKN110 17/11 A3034 RMK AO2

10-Day Weather Forecast

Almanac

Astronomy

Jul. 31, 2016 Rise Set
Actual Time
Civil Twilight
Nautical Twilight
Astronomical Twilight
Moon
Length of Visible Light
Length of Day
Tomorrow will be .
, % of the Moon is Illuminated

Today's Extremes

State Highs State Lows

Community

WunderPhotos

Upload Photos

1,928,768 photos uploaded!

WunderBlog® & News

Nearby

Air Quality

  Air Quality AQ Index Pollutant
Not available.

Snow Depth

Station Depth Elevation

Earthquake Activity

City Distance Mag. Time & Date
Minimum magnitude displayed is 2.5.

Coastal Water Temperatures

Place Temperature

Stations

Nearby Weather Stations

Station Location Temp. Windchill Dew Point Humidity Wind Precip. Elev Updated Type
                   

Watches & Warnings

There are currently no watches in effect.